createdAt,value
2022-08-24T00:02:02.215Z,99187.22
2022-08-24T00:04:31.878Z,99184.34
2022-08-24T00:07:01.232Z,99184.19
2022-08-24T00:09:30.001Z,99187.47
2022-08-24T00:11:58.078Z,99195.31
2022-08-24T00:14:26.202Z,99194.00
2022-08-24T00:16:54.445Z,99195.91
2022-08-24T00:19:22.674Z,99197.69
2022-08-24T00:21:51.823Z,99194.28
2022-08-24T00:24:20.133Z,99185.03
2022-08-24T00:26:49.053Z,99186.69
2022-08-24T00:29:18.544Z,99188.47
2022-08-24T00:31:46.995Z,99190.31
2022-08-24T00:34:16.124Z,99191.44
2022-08-24T00:36:44.352Z,99190.19
2022-08-24T00:39:12.981Z,99190.78
2022-08-24T00:41:45.981Z,99179.72
2022-08-24T00:44:14.591Z,99179.38
2022-08-24T00:46:43.458Z,99180.44
2022-08-24T00:49:19.449Z,99186.88
2022-08-24T00:51:55.678Z,99189.56
2022-08-24T00:54:27.061Z,99190.03
2022-08-24T00:57:01.071Z,99189.25
2022-08-24T00:59:34.702Z,99185.72
2022-08-24T01:02:15.281Z,99193.31
2022-08-24T01:04:58.899Z,99178.44
2022-08-24T01:07:29.171Z,99171.44
2022-08-24T01:10:00.840Z,99167.69
2022-08-24T01:12:31.363Z,99162.31
2022-08-24T01:15:01.304Z,99168.59
2022-08-24T01:17:48.094Z,99177.94
2022-08-24T01:20:16.150Z,99169.34
2022-08-24T01:22:59.360Z,99166.12
2022-08-24T01:25:28.667Z,99178.16
2022-08-24T01:28:00.958Z,99184.13
2022-08-24T01:30:36.866Z,99176.22
2022-08-24T01:33:08.612Z,99176.94
2022-08-24T01:35:38.948Z,99195.53
2022-08-24T01:38:09.868Z,99191.25
2022-08-24T01:40:43.042Z,99194.72
2022-08-24T01:43:12.951Z,99190.66
2022-08-24T01:45:41.652Z,99194.72
2022-08-24T01:48:10.904Z,99201.34
2022-08-24T01:50:39.044Z,99196.59
2022-08-24T01:53:09.683Z,99199.81
2022-08-24T01:55:37.933Z,99197.97
2022-08-24T01:58:06.608Z,99196.75
2022-08-24T02:00:36.086Z,99200.28
2022-08-24T02:03:05.352Z,99194.75
2022-08-24T02:05:33.616Z,99204.28
2022-08-24T02:08:01.545Z,99195.66
2022-08-24T02:10:30.272Z,99202.03
2022-08-24T02:12:58.620Z,99205.16
2022-08-24T02:15:32.875Z,99204.94
2022-08-24T02:18:01.193Z,99208.78
2022-08-24T02:20:30.396Z,99209.47
2022-08-24T02:22:58.283Z,99208.59
2022-08-24T02:25:27.743Z,99205.03
2022-08-24T02:27:56.465Z,99208.97
2022-08-24T02:30:24.598Z,99207.47
2022-08-24T02:32:52.615Z,99208.09
2022-08-24T02:35:22.472Z,99206.41
2022-08-24T02:37:50.292Z,99207.47
2022-08-24T02:40:18.349Z,99206.69
2022-08-24T02:42:46.693Z,99197.72
2022-08-24T02:45:14.700Z,99193.69
2022-08-24T02:47:42.833Z,99209.16
2022-08-24T02:50:14.583Z,99209.19
2022-08-24T02:52:43.092Z,99207.75
2022-08-24T02:55:15.321Z,99213.28
2022-08-24T02:57:48.073Z,99211.69
2022-08-24T03:00:19.234Z,99210.13
2022-08-24T03:02:52.000Z,99213.12
2022-08-24T03:05:22.818Z,99210.03
2022-08-24T03:07:52.348Z,99210.25
2022-08-24T03:10:21.537Z,99210.06
2022-08-24T03:12:50.606Z,99203.69
2022-08-24T03:15:24.028Z,99200.66
2022-08-24T03:17:52.314Z,99199.63
2022-08-24T03:20:22.515Z,99200.66
2022-08-24T03:22:50.904Z,99203.25
2022-08-24T03:25:20.918Z,99203.31
2022-08-24T03:27:48.675Z,99207.34
2022-08-24T03:30:18.692Z,99204.53
2022-08-24T03:32:46.949Z,99200.97
2022-08-24T03:35:15.752Z,99195.25
2022-08-24T03:37:43.873Z,99197.59
2022-08-24T03:40:22.721Z,99210.31
2022-08-24T03:42:53.404Z,99206.22
2022-08-24T03:45:23.055Z,99209.88
2022-08-24T03:47:51.092Z,99204.53
2022-08-24T03:50:20.043Z,99195.72
2022-08-24T03:52:48.443Z,99198.97
2022-08-24T03:55:16.451Z,99205.66
2022-08-24T03:57:44.273Z,99194.69
2022-08-24T04:00:13.988Z,99204.19
2022-08-24T04:02:42.483Z,99208.09
2022-08-24T04:05:12.488Z,99208.66
2022-08-24T04:07:41.226Z,99217.66
2022-08-24T04:10:09.629Z,99206.16
2022-08-24T04:12:38.921Z,99202.66
2022-08-24T04:15:08.702Z,99210.50
2022-08-24T04:17:37.082Z,99206.50
2022-08-24T04:20:07.795Z,99213.31
2022-08-24T04:22:37.472Z,99212.88
2022-08-24T04:25:09.443Z,99208.19
2022-08-24T04:27:39.662Z,99203.38
2022-08-24T04:30:09.452Z,99203.44
2022-08-24T04:32:38.545Z,99204.38
2022-08-24T04:35:07.606Z,99202.00
2022-08-24T04:37:35.961Z,99208.19
2022-08-24T04:40:05.832Z,99208.19
2022-08-24T04:42:35.103Z,99209.34
2022-08-24T04:45:04.890Z,99206.22
2022-08-24T04:47:33.380Z,99198.28
2022-08-24T04:50:01.171Z,99200.69
2022-08-24T04:52:30.492Z,99200.03
2022-08-24T04:54:59.132Z,99201.47
2022-08-24T04:57:27.878Z,99202.50
2022-08-24T04:59:58.239Z,99200.53
2022-08-24T05:02:27.700Z,99216.00
2022-08-24T05:04:58.013Z,99220.53
2022-08-24T05:07:26.141Z,99211.22
2022-08-24T05:09:57.023Z,99207.59
2022-08-24T05:12:29.872Z,99206.59
2022-08-24T05:15:00.126Z,99203.50
2022-08-24T05:17:32.152Z,99201.81
2022-08-24T05:20:06.874Z,99200.09
2022-08-24T05:22:38.531Z,99204.22
2022-08-24T05:25:07.716Z,99205.88
2022-08-24T05:27:39.115Z,99208.25
2022-08-24T05:30:11.289Z,99211.16
2022-08-24T05:32:42.127Z,99212.00
2022-08-24T05:35:11.502Z,99210.00
2022-08-24T05:37:45.993Z,99213.81
2022-08-24T05:40:17.071Z,99213.97
2022-08-24T05:42:46.502Z,99221.38
2022-08-24T05:45:15.435Z,99214.38
2022-08-24T05:47:43.879Z,99214.41
2022-08-24T05:50:12.343Z,99212.66
2022-08-24T05:52:40.356Z,99213.00
2022-08-24T05:55:09.193Z,99209.44
2022-08-24T05:57:38.263Z,99217.22
2022-08-24T06:00:11.872Z,99208.13
2022-08-24T06:02:44.018Z,99216.69
2022-08-24T06:05:12.410Z,99217.47
2022-08-24T06:07:40.824Z,99212.78
2022-08-24T06:10:34.874Z,99210.56
2022-08-24T06:12:58.367Z,99208.22
2022-08-24T06:15:26.185Z,99208.53
2022-08-24T06:17:54.091Z,99211.28
2022-08-24T06:20:22.514Z,99197.97
2022-08-24T06:22:51.001Z,99213.19
2022-08-24T06:25:37.774Z,99215.28
2022-08-24T06:28:05.902Z,99218.53
2022-08-24T06:30:34.992Z,99215.94
2022-08-24T06:33:03.360Z,99225.47
2022-08-24T06:35:32.484Z,99226.75
2022-08-24T06:38:00.663Z,99223.50
2022-08-24T06:40:28.558Z,99223.31
2022-08-24T06:42:56.715Z,99229.09
2022-08-24T06:45:29.960Z,99235.12
2022-08-24T06:47:58.243Z,99226.63
2022-08-24T06:50:26.226Z,99237.84
2022-08-24T06:52:54.012Z,99233.78
2022-08-24T06:55:22.185Z,99226.03
2022-08-24T06:57:52.489Z,99226.16
2022-08-24T07:00:21.460Z,99231.75
2022-08-24T07:02:50.439Z,99227.38
2022-08-24T07:05:18.661Z,99238.22
2022-08-24T07:07:48.763Z,99235.97
2022-08-24T07:10:17.100Z,99235.91
2022-08-24T07:12:50.966Z,99239.06
2022-08-24T07:15:20.114Z,99244.41
2022-08-24T07:17:48.253Z,99253.28
2022-08-24T07:20:17.736Z,99260.34
2022-08-24T07:22:48.135Z,99259.88
2022-08-24T07:25:16.245Z,99265.38
2022-08-24T07:27:43.993Z,99266.28
2022-08-24T07:30:28.000Z,99266.63
2022-08-24T07:32:59.413Z,99262.81
2022-08-24T07:35:30.107Z,99271.00
2022-08-24T07:37:59.720Z,99274.97
2022-08-24T07:40:29.305Z,99275.47
2022-08-24T07:42:58.415Z,99276.69
2022-08-24T07:45:28.522Z,99279.22
2022-08-24T07:50:25.676Z,99284.16
2022-08-24T07:52:53.646Z,99291.09
2022-08-24T07:55:21.995Z,99284.78
2022-08-24T07:57:50.575Z,99285.56
2022-08-24T08:00:22.566Z,99276.84
2022-08-24T08:02:50.994Z,99283.63
2022-08-24T08:05:22.875Z,99280.53
2022-08-24T08:07:52.718Z,99289.84
2022-08-24T08:10:23.512Z,99287.88
2022-08-24T08:12:52.015Z,99282.13
2022-08-24T08:15:20.067Z,99286.34
2022-08-24T08:17:52.064Z,99294.88
2022-08-24T08:20:24.838Z,99295.78
2022-08-24T08:23:11.426Z,99292.28
2022-08-24T08:25:42.484Z,99294.06
2022-08-24T08:28:25.250Z,99292.22
2022-08-24T08:30:55.360Z,99290.75
2022-08-24T08:33:24.623Z,99291.00
2022-08-24T08:36:15.264Z,99295.72
2022-08-24T08:38:44.796Z,99294.22
2022-08-24T08:41:31.614Z,99303.84
2022-08-24T08:44:05.397Z,99296.88
2022-08-24T08:46:51.869Z,99308.22
2022-08-24T08:49:46.225Z,99316.31
2022-08-24T08:52:30.887Z,99313.31
2022-08-24T08:55:18.044Z,99312.00
2022-08-24T08:58:03.684Z,99315.09
2022-08-24T09:01:04.782Z,99305.16
2022-08-24T09:03:55.393Z,99308.22
2022-08-24T09:06:35.908Z,99307.69
2022-08-24T09:09:46.133Z,99308.59
2022-08-24T09:12:50.623Z,99320.31
2022-08-24T09:15:31.324Z,99315.75
2022-08-24T09:18:23.132Z,99311.66
2022-08-24T09:21:00.845Z,99318.16
2022-08-24T09:23:34.968Z,99318.59
2022-08-24T09:26:27.449Z,99312.78
2022-08-24T09:29:10.117Z,99302.25
2022-08-24T09:31:49.206Z,99310.62
2022-08-24T09:34:29.242Z,99301.38
2022-08-24T09:37:24.938Z,99301.03
2022-08-24T09:40:01.999Z,99303.28
2022-08-24T09:43:13.175Z,99293.44
2022-08-24T09:46:23.474Z,99300.41
2022-08-24T09:48:57.296Z,99298.31
2022-08-24T09:52:23.967Z,99294.13
2022-08-24T09:55:12.105Z,99287.88
2022-08-24T09:58:01.569Z,99279.75
2022-08-24T10:01:23.256Z,99284.69
2022-08-24T10:04:28.825Z,99278.91
2022-08-24T10:07:08.696Z,99272.34
2022-08-24T10:10:09.638Z,99275.66
2022-08-24T10:13:04.575Z,99278.69
2022-08-24T10:15:46.383Z,99267.38
2022-08-24T10:18:39.204Z,99269.09
2022-08-24T10:21:35.105Z,99277.56
2022-08-24T10:24:05.980Z,99261.25
2022-08-24T10:26:55.730Z,99269.75
2022-08-24T10:29:32.960Z,99273.53
2022-08-24T10:32:38.815Z,99282.59
2022-08-24T10:35:10.515Z,99278.44
2022-08-24T10:38:13.930Z,99278.00
2022-08-24T10:41:26.261Z,99289.22
2022-08-24T10:44:31.814Z,99289.19
2022-08-24T10:47:01.755Z,99290.34
2022-08-24T10:49:48.891Z,99287.31
2022-08-24T10:52:38.818Z,99289.50
2022-08-24T10:55:19.788Z,99284.44
2022-08-24T10:58:12.333Z,99282.69
2022-08-24T11:00:41.388Z,99285.91
2022-08-24T11:03:19.997Z,99278.91
2022-08-24T11:05:57.812Z,99290.09
2022-08-24T11:08:28.394Z,99285.59
2022-08-24T11:11:14.687Z,99291.19
2022-08-24T11:14:00.411Z,99285.37
2022-08-24T11:16:38.856Z,99284.28
2022-08-24T11:19:13.507Z,99287.63
2022-08-24T11:21:52.310Z,99281.69
2022-08-24T11:24:40.338Z,99278.88
2022-08-24T11:27:20.285Z,99286.19
2022-08-24T11:29:54.911Z,99283.84
2022-08-24T11:32:47.956Z,99284.94
2022-08-24T11:35:34.115Z,99298.94
2022-08-24T11:38:17.633Z,99292.44
2022-08-24T11:41:28.730Z,99303.44
2022-08-24T11:44:09.783Z,99300.28
2022-08-24T11:46:47.009Z,99297.91
2022-08-24T11:49:47.212Z,99294.63
2022-08-24T11:52:23.184Z,99294.44
2022-08-24T11:55:25.482Z,99283.44
2022-08-24T11:58:00.232Z,99293.63
2022-08-24T12:00:40.210Z,99304.31
2022-08-24T12:03:30.653Z,99311.56
2022-08-24T12:06:19.319Z,99318.03
2022-08-24T12:09:06.173Z,99337.25
2022-08-24T12:11:51.126Z,99361.09
2022-08-24T12:14:30.481Z,99369.22
2022-08-24T12:17:18.644Z,99326.59
2022-08-24T12:19:52.038Z,99345.56
2022-08-24T12:22:20.896Z,99329.25
2022-08-24T12:24:55.498Z,99325.03
2022-08-24T12:27:33.114Z,99336.06
2022-08-24T12:30:09.615Z,99346.37
2022-08-24T12:32:42.360Z,99341.53
2022-08-24T12:35:49.086Z,99321.47
2022-08-24T12:38:26.713Z,99321.53
2022-08-24T12:41:03.407Z,99326.62
2022-08-24T12:43:51.685Z,99319.16
2022-08-24T12:46:24.041Z,99331.44
2022-08-24T12:49:01.724Z,99339.84
2022-08-24T12:51:52.073Z,99337.31
2022-08-24T12:54:33.156Z,99334.31
2022-08-24T12:57:33.461Z,99331.53
2022-08-24T13:00:36.482Z,99326.44
2022-08-24T13:03:42.262Z,99323.16
2022-08-24T13:06:48.887Z,99310.34
2022-08-24T13:09:33.090Z,99306.78
2022-08-24T13:12:33.102Z,99300.22
2022-08-24T13:15:20.316Z,99300.81
2022-08-24T13:18:09.528Z,99294.78
2022-08-24T13:20:44.491Z,99303.66
2022-08-24T13:23:16.188Z,99313.19
2022-08-24T13:25:47.571Z,99301.03
2022-08-24T13:28:24.005Z,99296.81
2022-08-24T13:30:52.131Z,99298.72
2022-08-24T13:33:30.334Z,99298.88
2022-08-24T13:36:28.898Z,99294.06
2022-08-24T13:39:02.904Z,99288.88
2022-08-24T13:41:40.151Z,99297.44
2022-08-24T13:44:21.463Z,99301.44
2022-08-24T13:47:05.630Z,99301.06
2022-08-24T13:49:46.282Z,99312.09
2022-08-24T13:52:39.626Z,99317.44
2022-08-24T13:55:14.004Z,99315.84
2022-08-24T13:58:10.950Z,99320.06
2022-08-24T14:00:39.544Z,99319.12
2022-08-24T14:03:22.271Z,99318.75
2022-08-24T14:06:01.983Z,99318.88
2022-08-24T14:08:40.328Z,99329.78
2022-08-24T14:11:34.574Z,99324.66
2022-08-24T14:14:38.934Z,99319.62
2022-08-24T14:17:55.188Z,99314.00
2022-08-24T14:21:22.712Z,99311.19
2022-08-24T14:24:00.752Z,99316.56
2022-08-24T14:26:35.084Z,99316.59
2022-08-24T14:29:18.066Z,99322.72
2022-08-24T14:32:00.004Z,99318.88
2022-08-24T14:34:42.147Z,99320.25
2022-08-24T14:37:12.997Z,99317.78
2022-08-24T14:39:52.544Z,99322.53
2022-08-24T14:43:00.451Z,99319.75
2022-08-24T14:45:52.057Z,99323.69
2022-08-24T14:48:44.344Z,99318.69
2022-08-24T14:51:31.875Z,99326.19
2022-08-24T14:54:23.245Z,99320.88
2022-08-24T14:57:05.544Z,99307.22
2022-08-24T14:59:46.598Z,99310.22
2022-08-24T15:02:29.736Z,99311.50
2022-08-24T15:05:23.635Z,99302.06
2022-08-24T15:08:32.614Z,99299.13
2022-08-24T15:11:17.925Z,99296.06
2022-08-24T15:13:55.903Z,99305.84
2022-08-24T15:16:53.211Z,99306.31
2022-08-24T15:22:25.549Z,99310.28
2022-08-24T15:25:07.745Z,99315.50
2022-08-24T15:27:56.003Z,99310.38
2022-08-24T15:30:30.464Z,99314.13
2022-08-24T15:33:10.775Z,99312.94
2022-08-24T15:36:09.479Z,99317.34
2022-08-24T15:38:39.604Z,99316.16
2022-08-24T15:41:32.327Z,99305.84
2022-08-24T15:44:05.080Z,99311.34
2022-08-24T15:46:41.245Z,99303.03
2022-08-24T15:49:22.508Z,99302.38
2022-08-24T15:52:10.507Z,99300.34
2022-08-24T15:54:42.189Z,99303.47
2022-08-24T15:57:19.120Z,99301.34
2022-08-24T15:59:49.829Z,99305.63
2022-08-24T16:02:29.253Z,99307.84
2022-08-24T16:05:21.638Z,99307.91
2022-08-24T16:08:04.901Z,99308.75
2022-08-24T16:10:51.471Z,99296.97
2022-08-24T16:13:19.181Z,99294.84
2022-08-24T16:16:03.130Z,99295.53
2022-08-24T16:18:49.238Z,99292.16
2022-08-24T16:21:45.269Z,99291.38
2022-08-24T16:24:25.818Z,99294.84
2022-08-24T16:27:15.419Z,99292.63
2022-08-24T16:29:51.152Z,99290.34
2022-08-24T16:32:32.190Z,99280.91
2022-08-24T16:35:11.158Z,99286.69
2022-08-24T16:37:39.972Z,99287.06
2022-08-24T16:40:09.320Z,99282.91
2022-08-24T16:42:37.779Z,99282.94
2022-08-24T16:45:07.258Z,99279.28
2022-08-24T16:47:35.021Z,99279.22
2022-08-24T16:50:03.549Z,99283.16
2022-08-24T16:52:31.558Z,99282.75
2022-08-24T16:55:01.639Z,99286.56
2022-08-24T16:57:31.659Z,99289.31
2022-08-24T16:59:59.949Z,99295.28
2022-08-24T17:02:27.697Z,99294.53
2022-08-24T17:04:56.311Z,99303.72
2022-08-24T17:07:27.999Z,99309.19
2022-08-24T17:09:56.649Z,99298.94
2022-08-24T17:12:24.758Z,99308.03
2022-08-24T17:14:53.767Z,99312.09
2022-08-24T17:17:23.619Z,99307.94
2022-08-24T17:19:53.693Z,99310.19
2022-08-24T17:22:25.938Z,99321.41
2022-08-24T17:24:54.283Z,99320.00
2022-08-24T17:27:27.069Z,99322.41
2022-08-24T17:29:55.178Z,99321.16
2022-08-24T17:32:23.329Z,99317.97
2022-08-24T17:34:50.999Z,99321.25
2022-08-24T17:37:19.371Z,99327.12
2022-08-24T17:39:52.490Z,99321.91
2022-08-24T17:42:48.986Z,99332.50
2022-08-24T17:45:13.116Z,99333.53
2022-08-24T17:47:43.293Z,99333.28
2022-08-24T17:50:13.078Z,99330.84
2022-08-24T17:52:41.518Z,99331.63
2022-08-24T17:55:11.139Z,99341.62
2022-08-24T17:57:39.557Z,99341.72
2022-08-24T18:00:10.730Z,99346.75
2022-08-24T18:02:41.388Z,99344.81
2022-08-24T18:05:11.641Z,99346.69
2022-08-24T18:07:53.274Z,99345.78
2022-08-24T18:10:26.091Z,99358.47
2022-08-24T18:12:56.080Z,99351.34
2022-08-24T18:15:36.046Z,99350.59
2022-08-24T18:18:08.734Z,99352.25
2022-08-24T18:20:40.159Z,99357.03
2022-08-24T18:23:11.210Z,99366.19
2022-08-24T18:25:45.780Z,99366.50
2022-08-24T18:28:14.568Z,99370.63
2022-08-24T18:30:44.266Z,99363.91
2022-08-24T18:33:12.821Z,99365.22
2022-08-24T18:35:40.694Z,99369.56
2022-08-24T18:38:08.820Z,99374.38
2022-08-24T18:40:36.900Z,99370.59
2022-08-24T18:43:05.160Z,99367.41
2022-08-24T18:45:34.146Z,99376.66
2022-08-24T18:48:02.726Z,99370.22
2022-08-24T18:50:31.078Z,99369.37
2022-08-24T18:52:59.648Z,99375.91
2022-08-24T18:55:27.663Z,99385.44
2022-08-24T18:57:57.059Z,99377.31
2022-08-24T19:00:25.628Z,99385.66
2022-08-24T19:02:53.623Z,99378.38
2022-08-24T19:05:24.158Z,99372.00
2022-08-24T19:07:54.784Z,99382.34
2022-08-24T19:10:26.198Z,99376.56
2022-08-24T19:12:58.881Z,99382.81
2022-08-24T19:15:32.626Z,99387.47
2022-08-24T19:18:11.406Z,99392.13
2022-08-24T19:20:44.663Z,99389.38
2022-08-24T19:23:25.006Z,99379.03
2022-08-24T19:25:54.751Z,99386.19
2022-08-24T19:28:24.899Z,99382.44
2022-08-24T19:30:57.888Z,99382.84
2022-08-24T19:33:32.669Z,99393.63
2022-08-24T19:36:00.859Z,99387.84
2022-08-24T19:38:29.696Z,99393.50
2022-08-24T19:40:59.659Z,99395.47
2022-08-24T19:43:28.548Z,99385.97
2022-08-24T19:46:05.509Z,99389.75
2022-08-24T19:48:37.218Z,99389.22
2022-08-24T19:51:08.131Z,99391.66
2022-08-24T19:53:37.540Z,99388.94
2022-08-24T19:56:07.249Z,99389.75
2022-08-24T19:58:50.270Z,99396.50
2022-08-24T20:01:31.688Z,99402.94
2022-08-24T20:04:04.362Z,99398.66
2022-08-24T20:06:35.269Z,99407.84
2022-08-24T20:09:05.109Z,99404.56
2022-08-24T20:11:32.870Z,99399.25
2022-08-24T20:14:02.679Z,99402.44
2022-08-24T20:16:39.639Z,99400.75
2022-08-24T20:19:08.140Z,99392.72
2022-08-24T20:21:37.792Z,99397.22
2022-08-24T20:24:06.639Z,99393.19
2022-08-24T20:26:42.039Z,99393.84
2022-08-24T20:29:11.150Z,99391.94
2022-08-24T20:31:40.265Z,99391.50
2022-08-24T20:34:08.068Z,99396.81
2022-08-24T20:36:39.060Z,99400.41
2022-08-24T20:39:10.080Z,99397.22
2022-08-24T20:41:38.648Z,99400.56
2022-08-24T20:44:09.368Z,99398.00
2022-08-24T20:46:38.201Z,99405.53
2022-08-24T20:49:07.468Z,99402.06
2022-08-24T20:51:38.812Z,99404.00
2022-08-24T20:54:08.580Z,99405.34
2022-08-24T20:56:38.172Z,99405.38
2022-08-24T20:59:11.620Z,99409.72
2022-08-24T21:01:42.985Z,99405.56
2022-08-24T21:04:10.794Z,99406.41
2022-08-24T21:06:40.968Z,99409.66
2022-08-24T21:09:12.794Z,99405.97
2022-08-24T21:11:43.656Z,99409.47
2022-08-24T21:14:11.427Z,99418.69
2022-08-24T21:16:41.539Z,99412.97
2022-08-24T21:19:12.772Z,99412.88
2022-08-24T21:21:42.419Z,99416.19
2022-08-24T21:24:10.869Z,99416.19
2022-08-24T21:26:39.588Z,99414.75
2022-08-24T21:29:09.138Z,99414.44
2022-08-24T21:31:38.099Z,99408.75
2022-08-24T21:34:26.538Z,99409.97
2022-08-24T21:36:54.905Z,99408.19
2022-08-24T21:39:22.557Z,99410.66
2022-08-24T21:41:50.261Z,99408.25
2022-08-24T21:44:18.348Z,99413.81
2022-08-24T21:46:46.063Z,99413.91
2022-08-24T21:49:14.038Z,99408.13
2022-08-24T21:51:42.184Z,99402.06
2022-08-24T21:54:09.941Z,99406.09
2022-08-24T21:56:37.761Z,99406.09
2022-08-24T21:59:07.139Z,99398.78
2022-08-24T22:01:35.298Z,99405.16
2022-08-24T22:04:03.588Z,99400.31
2022-08-24T22:06:31.966Z,99403.94
2022-08-24T22:09:00.730Z,99405.00
2022-08-24T22:11:29.497Z,99404.84
2022-08-24T22:13:57.386Z,99413.69
2022-08-24T22:16:25.986Z,99403.53
2022-08-24T22:18:54.239Z,99402.00
2022-08-24T22:21:24.770Z,99406.22
2022-08-24T22:23:53.078Z,99406.16
2022-08-24T22:26:27.988Z,99406.94
2022-08-24T22:28:56.963Z,99408.69
2022-08-24T22:31:28.093Z,99414.16
2022-08-24T22:33:57.528Z,99405.00
2022-08-24T22:36:26.908Z,99410.75
2022-08-24T22:38:56.368Z,99409.88
2022-08-24T22:41:25.219Z,99406.97
2022-08-24T22:44:14.350Z,99404.84
2022-08-24T22:46:42.129Z,99396.47
2022-08-24T22:49:10.778Z,99399.84
2022-08-24T22:51:39.309Z,99401.41
2022-08-24T22:54:07.518Z,99394.78
2022-08-24T22:56:38.590Z,99399.41
2022-08-24T22:59:07.324Z,99393.75
2022-08-24T23:01:40.545Z,99389.59
2022-08-24T23:04:12.721Z,99383.22
2022-08-24T23:06:41.138Z,99387.09
2022-08-24T23:09:09.421Z,99375.59
2022-08-24T23:11:37.588Z,99374.94
2022-08-24T23:14:07.150Z,99378.69
2022-08-24T23:16:37.048Z,99381.28
2022-08-24T23:19:25.798Z,99372.78
2022-08-24T23:21:53.983Z,99372.50
2022-08-24T23:24:22.347Z,99370.09
2022-08-24T23:26:50.608Z,99357.06
2022-08-24T23:29:18.480Z,99364.50
2022-08-24T23:31:47.448Z,99353.87
2022-08-24T23:34:16.292Z,99354.75
2022-08-24T23:36:44.394Z,99350.09
2022-08-24T23:39:13.179Z,99354.41
2022-08-24T23:41:46.269Z,99353.19
2022-08-24T23:44:19.477Z,99350.94
2022-08-24T23:46:47.929Z,99352.53
2022-08-24T23:49:21.349Z,99353.19
2022-08-24T23:51:49.557Z,99354.88
2022-08-24T23:54:21.107Z,99357.69
2022-08-24T23:56:49.569Z,99348.50
2022-08-24T23:59:22.119Z,99349.62
